createdAt,value
2018-11-28T00:00:56.380Z,74.49
2018-11-28T00:01:56.329Z,74.80
2018-11-28T00:02:56.354Z,74.49
2018-11-28T00:03:56.306Z,74.56
2018-11-28T00:04:56.321Z,74.80
2018-11-28T00:05:56.288Z,75.12
2018-11-28T00:06:56.270Z,75.40
2018-11-28T00:07:56.263Z,75.22
2018-11-28T00:08:56.248Z,75.32
2018-11-28T00:09:56.255Z,75.22
2018-11-28T00:10:56.258Z,75.32
2018-11-28T00:11:56.213Z,75.12
2018-11-28T00:12:56.204Z,75.43
2018-11-28T00:13:56.193Z,75.32
2018-11-28T00:14:56.202Z,75.53
2018-11-28T00:15:56.200Z,75.12
2018-11-28T00:16:56.157Z,75.95
2018-11-28T00:17:56.154Z,75.95
2018-11-28T00:18:56.138Z,75.64
2018-11-28T00:19:56.131Z,75.74
2018-11-28T00:20:56.113Z,75.53
2018-11-28T00:21:56.127Z,75.43
2018-11-28T00:22:56.095Z,75.36
2018-11-28T00:23:56.099Z,75.64
2018-11-28T00:24:56.109Z,75.95
2018-11-28T00:25:58.860Z,75.95
2018-11-28T00:26:56.045Z,76.37
2018-11-28T00:27:56.036Z,76.26
2018-11-28T00:28:56.033Z,76.37
2018-11-28T00:29:56.039Z,76.26
2018-11-28T00:30:56.004Z,76.26
2018-11-28T00:31:56.010Z,76.99
2018-11-28T00:32:55.982Z,76.89
2018-11-28T00:33:55.978Z,76.37
2018-11-28T00:34:55.970Z,76.57
2018-11-28T00:35:55.969Z,76.16
2018-11-28T00:36:55.946Z,76.37
2018-11-28T00:37:55.955Z,75.95
2018-11-28T00:38:55.923Z,75.53
2018-11-28T00:39:55.903Z,75.74
2018-11-28T00:40:55.916Z,75.53
2018-11-28T00:41:55.882Z,75.95
2018-11-28T00:42:55.885Z,75.53
2018-11-28T00:43:55.862Z,75.43
2018-11-28T00:44:55.851Z,75.64
2018-11-28T00:45:55.861Z,75.64
2018-11-28T00:46:55.840Z,75.74
2018-11-28T00:47:55.821Z,76.16
2018-11-28T00:48:55.806Z,75.85
2018-11-28T00:49:55.797Z,76.16
2018-11-28T00:50:55.808Z,75.74
2018-11-28T00:51:55.782Z,75.74
2018-11-28T00:52:55.776Z,75.53
2018-11-28T00:53:55.756Z,75.22
2018-11-28T00:54:55.751Z,75.74
2018-11-28T00:55:55.909Z,75.53
2018-11-28T00:56:55.721Z,75.74
2018-11-28T00:57:55.715Z,75.32
2018-11-28T00:58:55.698Z,75.43
2018-11-28T00:59:55.692Z,75.32
2018-11-28T01:00:55.692Z,75.12
2018-11-28T01:01:55.666Z,75.57
2018-11-28T01:02:55.658Z,75.85
2018-11-28T01:03:55.658Z,75.95
2018-11-28T01:04:55.632Z,75.74
2018-11-28T01:05:55.663Z,76.16
2018-11-28T01:06:55.618Z,76.37
2018-11-28T01:07:55.606Z,75.85
2018-11-28T01:08:55.591Z,75.43
2018-11-28T01:09:55.591Z,75.53
2018-11-28T01:10:55.589Z,75.85
2018-11-28T01:11:55.561Z,75.53
2018-11-28T01:12:55.544Z,75.85
2018-11-28T01:13:55.538Z,75.71
2018-11-28T01:14:55.532Z,75.43
2018-11-28T01:15:55.538Z,75.64
2018-11-28T01:16:55.508Z,76.06
2018-11-28T01:17:55.516Z,76.16
2018-11-28T01:18:55.482Z,76.47
2018-11-28T01:19:55.470Z,76.37
2018-11-28T01:20:55.466Z,77.10
2018-11-28T01:21:55.469Z,76.78
2018-11-28T01:22:55.450Z,77.13
2018-11-28T01:23:55.423Z,77.13
2018-11-28T01:24:55.417Z,77.13
2018-11-28T01:25:55.402Z,77.34
2018-11-28T01:26:55.444Z,77.13
2018-11-28T01:27:55.380Z,76.82
2018-11-28T01:28:55.377Z,77.34
2018-11-28T01:29:55.376Z,77.03
2018-11-28T01:30:55.356Z,77.45
2018-11-28T01:31:55.365Z,77.23
2018-11-28T01:32:55.344Z,77.03
2018-11-28T01:33:55.351Z,77.03
2018-11-28T01:34:55.304Z,77.45
2018-11-28T01:35:55.301Z,77.34
2018-11-28T01:36:55.392Z,77.45
2018-11-28T01:37:55.283Z,77.76
2018-11-28T01:38:55.281Z,77.03
2018-11-28T01:39:55.327Z,77.66
2018-11-28T01:40:55.238Z,77.34
2018-11-28T01:42:12.005Z,76.82
2018-11-28T01:42:59.323Z,76.61
2018-11-28T01:43:55.211Z,76.82
2018-11-28T01:44:55.195Z,76.89
2018-11-28T01:45:55.184Z,77.23
2018-11-28T01:46:55.201Z,76.92
2018-11-28T01:47:55.167Z,77.23
2018-11-28T01:48:55.153Z,77.13
2018-11-28T01:49:55.154Z,77.34
2018-11-28T01:50:55.133Z,77.76
2018-11-28T01:51:55.134Z,76.82
2018-11-28T01:52:55.108Z,76.61
2018-11-28T01:53:55.100Z,77.03
2018-11-28T01:54:55.088Z,76.82
2018-11-28T01:55:55.095Z,77.03
2018-11-28T01:56:55.100Z,76.82
2018-11-28T01:57:55.054Z,77.23
2018-11-28T01:58:55.043Z,77.23
2018-11-28T01:59:55.047Z,77.34
2018-11-28T02:00:55.027Z,76.89
2018-11-28T02:01:55.022Z,76.61
2018-11-28T02:02:55.032Z,76.51
2018-11-28T02:03:54.987Z,76.61
2018-11-28T02:04:54.979Z,76.92
2018-11-28T02:05:54.964Z,76.30
2018-11-28T02:06:54.958Z,76.20
2018-11-28T02:07:54.966Z,77.13
2018-11-28T02:08:54.933Z,77.34
2018-11-28T02:09:54.925Z,77.23
2018-11-28T02:10:54.924Z,76.57
2018-11-28T02:11:54.904Z,76.20
2018-11-28T02:12:54.948Z,76.89
2018-11-28T02:13:54.882Z,76.99
2018-11-28T02:14:54.869Z,76.37
2018-11-28T02:15:54.862Z,76.37
2018-11-28T02:16:54.849Z,76.68
2018-11-28T02:17:54.852Z,76.47
2018-11-28T02:18:54.838Z,76.16
2018-11-28T02:19:54.812Z,77.10
2018-11-28T02:20:54.804Z,77.20
2018-11-28T02:21:54.790Z,77.41
2018-11-28T02:22:54.813Z,77.31
2018-11-28T02:23:54.770Z,77.20
2018-11-28T02:24:54.764Z,77.31
2018-11-28T02:25:54.744Z,76.37
2018-11-28T02:26:54.748Z,76.47
2018-11-28T02:27:54.744Z,76.89
2018-11-28T02:28:54.713Z,76.99
2018-11-28T02:29:54.720Z,76.89
2018-11-28T02:30:54.696Z,76.26
2018-11-28T02:31:54.681Z,76.57
2018-11-28T02:32:54.686Z,76.37
2018-11-28T02:33:54.661Z,76.57
2018-11-28T02:34:54.645Z,77.10
2018-11-28T02:35:54.643Z,76.89
2018-11-28T02:36:54.648Z,77.41
2018-11-28T02:37:54.633Z,76.68
2018-11-28T02:38:54.606Z,76.57
2018-11-28T02:39:54.601Z,77.20
2018-11-28T02:40:54.582Z,76.57
2018-11-28T02:41:54.583Z,77.20
2018-11-28T02:42:54.585Z,77.31
2018-11-28T02:43:54.548Z,77.31
2018-11-28T02:44:54.540Z,77.51
2018-11-28T02:45:54.536Z,77.62
2018-11-28T02:46:54.520Z,77.62
2018-11-28T02:47:54.520Z,77.72
2018-11-28T02:48:54.496Z,77.31
2018-11-28T02:49:54.483Z,77.10
2018-11-28T02:50:54.492Z,77.83
2018-11-28T02:51:54.462Z,77.86
2018-11-28T02:52:54.469Z,77.76
2018-11-28T02:53:54.455Z,77.55
2018-11-28T02:54:54.433Z,77.76
2018-11-28T02:55:54.419Z,77.76
2018-11-28T02:56:54.407Z,77.90
2018-11-28T02:57:54.422Z,78.31
2018-11-28T02:58:54.387Z,78.21
2018-11-28T02:59:54.389Z,77.69
2018-11-28T03:00:54.363Z,77.94
2018-11-28T03:01:54.350Z,77.62
2018-11-28T03:02:54.362Z,78.14
2018-11-28T03:03:54.334Z,77.62
2018-11-28T03:04:54.320Z,78.04
2018-11-28T03:05:54.317Z,78.14
2018-11-28T03:06:54.297Z,78.39
2018-11-28T03:07:54.302Z,79.11
2018-11-28T03:08:54.281Z,78.91
2018-11-28T03:09:54.264Z,79.11
2018-11-28T03:10:54.258Z,78.80
2018-11-28T03:11:54.266Z,79.33
2018-11-28T03:12:54.249Z,79.36
2018-11-28T03:13:54.228Z,79.26
2018-11-28T03:14:54.214Z,79.78
2018-11-28T03:15:54.206Z,79.47
2018-11-28T03:16:54.203Z,79.78
2018-11-28T03:17:54.210Z,79.88
2018-11-28T03:18:54.167Z,80.09
2018-11-28T03:19:54.154Z,79.78
2018-11-28T03:20:54.147Z,79.78
2018-11-28T03:21:54.140Z,79.74
2018-11-28T03:22:54.147Z,79.78
2018-11-28T03:23:54.112Z,80.09
2018-11-28T03:24:54.103Z,80.30
2018-11-28T03:25:54.092Z,79.68
2018-11-28T03:26:54.079Z,79.99
2018-11-28T03:27:54.088Z,79.99
2018-11-28T03:28:54.057Z,80.09
2018-11-28T03:29:54.049Z,80.09
2018-11-28T03:30:54.038Z,79.78
2018-11-28T03:31:54.028Z,79.99
2018-11-28T03:32:54.040Z,79.71
2018-11-28T03:33:54.013Z,79.78
2018-11-28T03:34:53.995Z,80.13
2018-11-28T03:35:53.979Z,79.40
2018-11-28T03:36:53.979Z,79.40
2018-11-28T03:37:53.982Z,79.71
2018-11-28T03:38:53.948Z,79.50
2018-11-28T03:39:53.950Z,79.71
2018-11-28T03:40:53.927Z,79.82
2018-11-28T03:41:53.915Z,80.55
2018-11-28T03:42:53.929Z,80.48
2018-11-28T03:43:53.890Z,81.00
2018-11-28T03:44:53.884Z,80.86
2018-11-28T03:45:53.890Z,80.76
2018-11-28T03:46:53.862Z,80.90
2018-11-28T03:47:53.872Z,80.76
2018-11-28T03:48:53.843Z,80.96
2018-11-28T03:49:53.831Z,81.00
2018-11-28T03:50:53.817Z,81.00
2018-11-28T03:51:53.805Z,81.32
2018-11-28T03:52:53.827Z,81.63
2018-11-28T03:53:53.790Z,82.05
2018-11-28T03:54:53.771Z,82.05
2018-11-28T03:55:53.761Z,82.05
2018-11-28T03:56:53.757Z,82.46
2018-11-28T03:57:53.763Z,82.57
2018-11-28T03:58:53.731Z,81.95
2018-11-28T03:59:53.718Z,82.57
2018-11-28T04:00:53.729Z,83.23
2018-11-28T04:01:53.697Z,82.46
2018-11-28T04:02:53.703Z,82.40
2018-11-28T04:03:53.676Z,82.60
2018-11-28T04:04:53.663Z,82.09
2018-11-28T04:05:53.656Z,82.15
2018-11-28T04:06:53.637Z,82.71
2018-11-28T04:07:53.670Z,82.82
2018-11-28T04:08:53.619Z,82.92
2018-11-28T04:09:53.683Z,82.92
2018-11-28T04:10:53.600Z,83.48
2018-11-28T04:11:53.585Z,83.23
2018-11-28T04:12:53.575Z,83.03
2018-11-28T04:13:53.587Z,83.13
2018-11-28T04:14:53.553Z,83.86
2018-11-28T04:15:53.546Z,83.55
2018-11-28T04:16:53.537Z,83.69
2018-11-28T04:17:53.534Z,83.59
2018-11-28T04:18:53.535Z,83.27
2018-11-28T04:19:53.511Z,83.69
2018-11-28T04:20:53.486Z,83.90
2018-11-28T04:21:53.479Z,83.80
2018-11-28T04:22:53.467Z,84.22
2018-11-28T04:23:53.481Z,84.11
2018-11-28T04:24:53.443Z,84.32
2018-11-28T04:25:53.446Z,84.46
2018-11-28T04:26:53.423Z,84.32
2018-11-28T04:27:53.410Z,84.36
2018-11-28T04:28:53.424Z,84.53
2018-11-28T04:29:54.222Z,84.67
2018-11-28T04:30:53.381Z,84.74
2018-11-28T04:31:53.385Z,85.09
2018-11-28T04:32:53.356Z,84.63
2018-11-28T04:33:53.361Z,84.15
2018-11-28T04:34:53.337Z,84.67
2018-11-28T04:35:53.328Z,84.74
2018-11-28T04:36:53.320Z,84.63
2018-11-28T04:37:53.315Z,84.22
2018-11-28T04:38:53.331Z,84.63
2018-11-28T04:39:53.279Z,84.67
2018-11-28T04:40:53.274Z,84.74
2018-11-28T04:41:53.261Z,85.16
2018-11-28T04:42:53.252Z,84.42
2018-11-28T04:43:53.267Z,84.67
2018-11-28T04:44:53.225Z,84.67
2018-11-28T04:45:53.215Z,84.78
2018-11-28T04:46:53.207Z,85.19
2018-11-28T04:47:53.205Z,85.09
2018-11-28T04:48:53.206Z,85.30
2018-11-28T04:49:53.176Z,85.30
2018-11-28T04:50:53.159Z,85.30
2018-11-28T04:51:53.157Z,85.61
2018-11-28T04:52:53.148Z,85.72
2018-11-28T04:53:53.163Z,85.82
2018-11-28T04:54:53.127Z,85.44
2018-11-28T04:55:53.113Z,85.65
2018-11-28T04:56:53.095Z,85.51
2018-11-28T04:57:53.087Z,85.51
2018-11-28T04:58:53.073Z,85.82
2018-11-28T04:59:53.085Z,85.65
2018-11-28T05:00:53.064Z,85.93
2018-11-28T05:01:53.041Z,85.72
2018-11-28T05:02:53.029Z,85.65
2018-11-28T05:03:53.019Z,85.61
2018-11-28T05:04:53.038Z,85.72
2018-11-28T05:05:53.001Z,85.61
2018-11-28T05:06:52.994Z,85.34
2018-11-28T05:07:52.976Z,85.51
2018-11-28T05:08:52.963Z,85.65
2018-11-28T05:09:52.980Z,85.44
2018-11-28T05:10:52.946Z,85.44
2018-11-28T05:11:52.942Z,85.44
2018-11-28T05:12:52.919Z,86.07
2018-11-28T05:13:52.908Z,86.07
2018-11-28T05:14:52.919Z,86.70
2018-11-28T05:15:52.895Z,86.49
2018-11-28T05:16:52.895Z,86.49
2018-11-28T05:17:53.469Z,86.80
2018-11-28T05:18:52.857Z,86.60
2018-11-28T05:19:53.423Z,86.70
2018-11-28T05:20:52.836Z,86.70
2018-11-28T05:21:52.831Z,86.45
2018-11-28T05:22:52.811Z,86.49
2018-11-28T05:23:52.806Z,86.35
2018-11-28T05:24:52.817Z,86.49
2018-11-28T05:25:52.783Z,86.28
2018-11-28T05:26:52.772Z,86.60
2018-11-28T05:27:52.757Z,86.38
2018-11-28T05:28:52.749Z,86.28
2018-11-28T05:29:52.756Z,86.38
2018-11-28T05:30:52.731Z,86.28
2018-11-28T05:31:52.711Z,86.91
2018-11-28T05:32:52.698Z,86.91
2018-11-28T05:33:52.689Z,86.74
2018-11-28T05:34:52.713Z,85.75
2018-11-28T05:35:52.665Z,85.34
2018-11-28T05:36:52.659Z,85.48
2018-11-28T05:37:52.648Z,86.00
2018-11-28T05:38:52.642Z,87.16
2018-11-28T05:39:52.625Z,86.63
2018-11-28T05:40:52.632Z,86.53
2018-11-28T05:41:52.605Z,86.43
2018-11-28T05:42:52.590Z,86.85
2018-11-28T05:43:52.583Z,86.32
2018-11-28T05:44:52.569Z,86.43
2018-11-28T05:45:52.583Z,86.46
2018-11-28T05:46:52.556Z,87.20
2018-11-28T05:47:52.545Z,87.16
2018-11-28T05:48:52.523Z,87.30
2018-11-28T05:49:52.515Z,87.41
2018-11-28T05:50:52.524Z,87.26
2018-11-28T05:51:52.506Z,86.95
2018-11-28T05:52:52.481Z,87.20
2018-11-28T05:53:52.467Z,86.78
2018-11-28T05:54:52.460Z,87.20
2018-11-28T05:55:52.513Z,87.20
2018-11-28T05:56:52.443Z,87.30
2018-11-28T05:57:52.445Z,87.41
2018-11-28T05:58:52.427Z,88.14
2018-11-28T05:59:52.407Z,88.24
2018-11-28T06:00:52.425Z,88.04
2018-11-28T06:01:52.395Z,88.14
2018-11-28T06:02:52.375Z,88.46
2018-11-28T06:03:52.369Z,88.24
2018-11-28T06:04:52.351Z,87.72
2018-11-28T06:05:52.359Z,88.46
2018-11-28T06:06:52.333Z,88.14
2018-11-28T06:07:52.324Z,88.24
2018-11-28T06:08:52.316Z,88.35
2018-11-28T06:09:52.308Z,88.35
2018-11-28T06:10:52.321Z,88.04
2018-11-28T06:11:52.284Z,87.41
2018-11-28T06:12:52.267Z,88.46
2018-11-28T06:13:52.261Z,88.42
2018-11-28T06:14:52.245Z,87.62
2018-11-28T06:15:52.267Z,87.41
2018-11-28T06:16:52.224Z,87.83
2018-11-28T06:17:52.207Z,88.14
2018-11-28T06:18:52.201Z,88.46
2018-11-28T06:19:52.186Z,88.35
2018-11-28T06:20:52.181Z,87.30
2018-11-28T06:21:52.191Z,87.30
2018-11-28T06:22:52.163Z,87.72
2018-11-28T06:23:52.156Z,88.46
2018-11-28T06:24:52.139Z,88.46
2018-11-28T06:25:52.121Z,88.24
2018-11-28T06:26:52.134Z,87.72
2018-11-28T06:27:52.099Z,88.24
2018-11-28T06:28:52.097Z,87.72
2018-11-28T06:29:52.079Z,87.72
2018-11-28T06:30:52.075Z,88.24
2018-11-28T06:31:52.075Z,88.35
2018-11-28T06:32:52.052Z,87.51
2018-11-28T06:33:52.035Z,87.66
2018-11-28T06:34:52.025Z,87.51
2018-11-28T06:35:52.013Z,87.41
2018-11-28T06:36:52.029Z,86.99
2018-11-28T06:37:51.995Z,87.41
2018-11-28T06:38:52.001Z,87.41
2018-11-28T06:39:52.035Z,87.83
2018-11-28T06:40:51.961Z,87.45
2018-11-28T06:41:51.971Z,86.99
2018-11-28T06:42:51.942Z,87.97
2018-11-28T06:43:51.933Z,86.99
2018-11-28T06:44:51.931Z,87.45
2018-11-28T06:45:51.906Z,87.41
2018-11-28T06:46:51.918Z,86.99
2018-11-28T06:47:51.886Z,86.99
2018-11-28T06:48:51.872Z,87.41
2018-11-28T06:49:51.867Z,87.55
2018-11-28T06:50:51.852Z,87.41
2018-11-28T06:51:51.868Z,86.88
2018-11-28T06:52:51.832Z,87.20
2018-11-28T06:53:51.815Z,87.30
2018-11-28T06:54:51.811Z,87.30
2018-11-28T06:55:51.800Z,86.88
2018-11-28T06:56:51.813Z,86.88
2018-11-28T06:57:51.778Z,86.78
2018-11-28T06:58:51.766Z,86.46
2018-11-28T06:59:51.759Z,86.68
2018-11-28T07:00:51.741Z,86.57
2018-11-28T07:01:51.811Z,86.57
2018-11-28T07:02:51.721Z,86.46
2018-11-28T07:03:51.711Z,86.57
2018-11-28T07:04:51.706Z,86.88
2018-11-28T07:05:51.696Z,86.68
2018-11-28T07:06:51.709Z,86.99
2018-11-28T07:07:51.676Z,86.68
2018-11-28T07:08:51.654Z,86.78
2018-11-28T07:09:51.649Z,86.78
2018-11-28T07:10:51.633Z,86.46
2018-11-28T07:11:51.619Z,86.46
2018-11-28T07:12:51.626Z,87.09
2018-11-28T07:13:51.615Z,88.14
2018-11-28T07:14:51.615Z,88.35
2018-11-28T07:15:51.583Z,86.46
2018-11-28T07:16:51.571Z,86.99
2018-11-28T07:17:51.580Z,88.49
2018-11-28T07:18:51.549Z,87.09
2018-11-28T07:19:51.536Z,87.20
2018-11-28T07:20:51.566Z,88.14
2018-11-28T07:21:51.509Z,88.14
2018-11-28T07:22:51.518Z,89.29
2018-11-28T07:23:51.499Z,88.62
2018-11-28T07:24:51.482Z,86.78
2018-11-28T07:25:51.466Z,86.57
2018-11-28T07:26:51.460Z,86.99
2018-11-28T07:27:51.467Z,86.05
2018-11-28T07:28:51.439Z,85.83
2018-11-28T07:29:51.427Z,85.48
2018-11-28T07:30:51.423Z,85.94
2018-11-28T07:31:51.402Z,85.94
2018-11-28T07:32:51.431Z,85.83
2018-11-28T07:33:51.383Z,86.11
2018-11-28T07:34:51.371Z,85.90
2018-11-28T07:35:51.365Z,85.38
2018-11-28T07:36:51.360Z,85.63
2018-11-28T07:37:51.385Z,85.63
2018-11-28T07:38:51.326Z,85.73
2018-11-28T07:39:51.316Z,85.90
2018-11-28T07:40:51.304Z,85.83
2018-11-28T07:41:51.298Z,85.59
2018-11-28T07:42:51.303Z,85.90
2018-11-28T07:43:51.273Z,85.48
2018-11-28T07:44:51.263Z,85.48
2018-11-28T07:45:51.252Z,85.27
2018-11-28T07:46:51.237Z,84.75
2018-11-28T07:47:51.246Z,85.06
2018-11-28T07:48:51.217Z,84.85
2018-11-28T07:49:51.969Z,85.06
2018-11-28T07:50:51.196Z,84.75
2018-11-28T07:51:51.187Z,84.85
2018-11-28T07:52:51.195Z,85.38
2018-11-28T07:53:51.164Z,85.06
2018-11-28T07:54:51.153Z,84.81
2018-11-28T07:55:51.141Z,84.81
2018-11-28T07:56:51.124Z,85.75
2018-11-28T07:57:51.144Z,84.92
2018-11-28T07:58:51.112Z,84.50
2018-11-28T07:59:51.107Z,84.29
2018-11-28T08:00:51.087Z,83.87
2018-11-28T08:01:51.077Z,83.87
2018-11-28T08:02:51.083Z,84.39
2018-11-28T08:03:51.085Z,83.45
2018-11-28T08:04:51.049Z,84.25
2018-11-28T08:05:51.029Z,83.62
2018-11-28T08:06:51.023Z,83.31
2018-11-28T08:07:51.026Z,83.21
2018-11-28T08:08:51.012Z,83.10
2018-11-28T08:09:50.983Z,83.21
2018-11-28T08:10:50.989Z,82.26
2018-11-28T08:11:50.990Z,81.53
2018-11-28T08:12:50.970Z,81.32
2018-11-28T08:13:50.945Z,80.80
2018-11-28T08:14:50.933Z,81.22
2018-11-28T08:15:50.922Z,81.18
2018-11-28T08:16:50.918Z,82.02
2018-11-28T08:17:50.929Z,80.97
2018-11-28T08:18:50.891Z,80.55
2018-11-28T08:19:50.878Z,80.35
2018-11-28T08:20:50.883Z,79.93
2018-11-28T08:21:50.855Z,80.35
2018-11-28T08:22:50.887Z,79.47
2018-11-28T08:23:50.834Z,78.32
2018-11-28T08:24:50.828Z,77.69
2018-11-28T08:25:50.813Z,77.90
2018-11-28T08:26:50.802Z,78.01
2018-11-28T08:27:50.798Z,77.28
2018-11-28T08:28:50.797Z,77.06
2018-11-28T08:29:50.768Z,77.38
2018-11-28T08:30:50.819Z,77.38
2018-11-28T08:31:50.747Z,76.72
2018-11-28T08:32:50.731Z,76.61
2018-11-28T08:33:50.740Z,76.72
2018-11-28T08:34:50.713Z,75.98
2018-11-28T08:35:50.725Z,75.57
2018-11-28T08:36:50.693Z,75.15
2018-11-28T08:37:50.684Z,74.94
2018-11-28T08:38:50.695Z,74.73
2018-11-28T08:39:50.662Z,74.84
2018-11-28T08:40:50.647Z,74.59
2018-11-28T08:41:50.635Z,74.38
2018-11-28T08:42:50.625Z,74.10
2018-11-28T08:43:50.634Z,74.00
2018-11-28T08:44:50.602Z,73.27
2018-11-28T08:45:50.604Z,72.02
2018-11-28T08:46:50.590Z,72.30
2018-11-28T08:47:50.569Z,72.08
2018-11-28T08:48:50.576Z,72.19
2018-11-28T08:49:50.558Z,71.98
2018-11-28T08:50:50.544Z,71.67
2018-11-28T08:51:50.542Z,71.95
2018-11-28T08:52:50.520Z,71.36
2018-11-28T08:53:51.980Z,71.32
2018-11-28T08:54:50.494Z,70.90
2018-11-28T08:55:50.486Z,71.64
2018-11-28T08:56:50.478Z,72.05
2018-11-28T08:57:50.483Z,70.80
2018-11-28T08:58:50.485Z,70.80
2018-11-28T08:59:50.443Z,70.70
2018-11-28T09:00:50.435Z,71.32
2018-11-28T09:01:50.416Z,70.98
2018-11-28T09:02:50.412Z,70.56
2018-11-28T09:03:50.444Z,69.93
2018-11-28T09:04:50.386Z,69.62
2018-11-28T09:05:50.378Z,69.51
2018-11-28T09:06:50.369Z,69.82
2018-11-28T09:07:50.352Z,70.04
2018-11-28T09:08:50.345Z,70.04
2018-11-28T09:09:50.361Z,70.04
2018-11-28T09:10:50.327Z,70.45
2018-11-28T09:11:50.305Z,70.45
2018-11-28T09:12:50.344Z,70.25
2018-11-28T09:13:50.289Z,70.00
2018-11-28T09:14:50.293Z,70.00
2018-11-28T09:15:50.272Z,69.45
2018-11-28T09:16:50.256Z,68.82
2018-11-28T09:17:50.312Z,67.82
2018-11-28T09:18:50.241Z,65.92
2018-11-28T09:19:50.246Z,65.37
2018-11-28T09:20:50.217Z,63.64
2018-11-28T09:21:50.245Z,62.37
2018-11-28T09:22:50.191Z,61.22
2018-11-28T09:23:50.180Z,61.54
2018-11-28T09:24:50.194Z,60.91
2018-11-28T09:25:50.167Z,61.33
2018-11-28T09:26:50.147Z,60.83
2018-11-28T09:27:50.136Z,61.36
2018-11-28T09:28:50.125Z,61.36
2018-11-28T09:29:50.132Z,61.67
2018-11-28T09:30:50.100Z,61.57
2018-11-28T09:31:50.090Z,60.94
2018-11-28T09:32:50.081Z,61.67
2018-11-28T09:33:50.073Z,61.88
2018-11-28T09:34:50.084Z,61.46
2018-11-28T09:35:50.046Z,61.25
2018-11-28T09:36:50.038Z,60.71
2018-11-28T09:37:50.038Z,59.50
2018-11-28T09:38:50.016Z,58.44
2018-11-28T09:39:50.020Z,57.51
2018-11-28T09:40:49.996Z,57.30
2018-11-28T09:41:49.978Z,57.17
2018-11-28T09:42:49.972Z,56.62
2018-11-28T09:43:49.967Z,56.00
2018-11-28T09:44:49.970Z,56.31
2018-11-28T09:45:49.941Z,56.73
2018-11-28T09:46:49.942Z,56.49
2018-11-28T09:47:49.926Z,56.62
2018-11-28T09:48:49.905Z,56.16
2018-11-28T09:49:49.915Z,54.14
2018-11-28T09:50:49.881Z,52.23
2018-11-28T09:51:49.871Z,52.08
2018-11-28T09:52:49.863Z,51.15
2018-11-28T09:53:49.848Z,50.11
2018-11-28T09:54:49.994Z,50.13
2018-11-28T09:55:49.824Z,51.07
2018-11-28T09:56:49.821Z,50.24
2018-11-28T09:57:49.808Z,50.84
2018-11-28T09:58:49.791Z,49.88
2018-11-28T09:59:49.806Z,49.68
2018-11-28T10:00:49.783Z,49.47
2018-11-28T10:01:49.765Z,49.24
2018-11-28T10:02:49.747Z,48.00
2018-11-28T10:03:49.739Z,48.21
2018-11-28T10:04:49.813Z,50.01
2018-11-28T10:05:49.721Z,48.87
2018-11-28T10:06:49.709Z,49.08
2018-11-28T10:07:49.691Z,48.33
2018-11-28T10:08:49.687Z,47.90
2018-11-28T10:09:49.706Z,46.74
2018-11-28T10:10:49.659Z,46.86
2018-11-28T10:11:49.659Z,47.20
2018-11-28T10:12:49.635Z,47.81
2018-11-28T10:13:49.627Z,48.25
2018-11-28T10:14:49.635Z,48.46
2018-11-28T10:15:49.611Z,47.69
2018-11-28T10:16:50.327Z,46.72
2018-11-28T10:17:49.593Z,44.82
2018-11-28T10:18:49.615Z,44.33
2018-11-28T10:19:49.579Z,41.20
2018-11-28T10:20:49.547Z,40.84
2018-11-28T10:21:49.547Z,39.67
2018-11-28T10:22:49.529Z,39.45
2018-11-28T10:23:49.523Z,37.57
2018-11-28T10:24:49.537Z,37.45
2018-11-28T10:25:49.499Z,36.61
2018-11-28T10:26:49.481Z,35.88
2018-11-28T10:27:49.477Z,35.64
2018-11-28T10:28:49.474Z,34.11
2018-11-28T10:29:49.479Z,33.69
2018-11-28T10:30:49.482Z,32.89
2018-11-28T10:31:49.441Z,33.81
2018-11-28T10:32:49.415Z,32.36
2018-11-28T10:33:49.426Z,32.56
2018-11-28T10:34:49.399Z,32.17
2018-11-28T10:35:49.403Z,32.17
2018-11-28T10:36:49.375Z,32.36
2018-11-28T10:37:49.381Z,31.46
2018-11-28T10:38:49.365Z,32.28
2018-11-28T10:39:49.341Z,31.44
2018-11-28T10:40:50.069Z,31.73
2018-11-28T10:41:49.359Z,31.20
2018-11-28T10:42:49.300Z,30.08
2018-11-28T10:43:49.406Z,29.87
2018-11-28T10:44:49.297Z,30.89
2018-11-28T10:45:49.433Z,30.26
2018-11-28T10:46:49.707Z,29.23
2018-11-28T10:47:49.264Z,29.01
2018-11-28T10:48:49.237Z,29.91
2018-11-28T10:49:49.230Z,29.00
2018-11-28T10:50:49.240Z,29.30
2018-11-28T10:51:50.381Z,28.80
2018-11-28T10:52:49.190Z,28.58
2018-11-28T10:53:49.185Z,28.88
2018-11-28T10:54:49.176Z,28.47
2018-11-28T10:55:49.180Z,28.78
2018-11-28T10:56:49.150Z,29.17
2018-11-28T10:57:49.153Z,27.45
2018-11-28T10:58:49.130Z,28.97
2018-11-28T10:59:49.115Z,27.95
2018-11-28T11:00:49.516Z,28.14
2018-11-28T11:01:49.102Z,28.06
2018-11-28T11:02:49.151Z,28.14
2018-11-28T11:03:49.098Z,28.04
2018-11-28T11:04:49.072Z,28.44
2018-11-28T11:05:49.072Z,27.10
2018-11-28T11:06:49.073Z,27.51
2018-11-28T11:07:49.031Z,27.00
2018-11-28T11:08:49.022Z,27.12
2018-11-28T11:09:49.015Z,27.00
2018-11-28T11:10:49.009Z,27.00
2018-11-28T11:11:48.980Z,27.09
2018-11-28T11:12:48.975Z,26.38
2018-11-28T11:13:48.959Z,27.08
2018-11-28T11:14:48.958Z,26.58
2018-11-28T11:15:49.014Z,26.50
2018-11-28T11:16:48.947Z,27.31
2018-11-28T11:17:48.988Z,27.20
2018-11-28T11:18:48.915Z,26.39
2018-11-28T11:19:48.891Z,26.90
2018-11-28T11:20:48.891Z,26.50
2018-11-28T11:21:48.896Z,26.79
2018-11-28T11:22:48.864Z,26.38
2018-11-28T11:23:48.848Z,25.77
2018-11-28T11:24:48.897Z,27.20
2018-11-28T11:25:48.834Z,26.51
2018-11-28T11:26:48.838Z,27.03
2018-11-28T11:27:48.809Z,27.36
2018-11-28T11:28:48.797Z,28.07
2018-11-28T11:29:48.779Z,28.92
2018-11-28T11:30:48.803Z,28.74
2018-11-28T11:31:48.776Z,29.24
2018-11-28T11:32:48.793Z,30.19
2018-11-28T11:33:48.736Z,30.24
2018-11-28T11:34:48.726Z,32.26
2018-11-28T11:35:48.724Z,34.28
2018-11-28T11:36:48.735Z,36.51
2018-11-28T11:37:48.707Z,38.19
2018-11-28T11:38:48.685Z,39.36
2018-11-28T11:39:48.675Z,41.24
2018-11-28T11:40:48.660Z,40.73
2018-11-28T11:41:48.671Z,40.01
2018-11-28T11:42:48.643Z,40.00
2018-11-28T11:43:48.634Z,39.79
2018-11-28T11:44:49.508Z,39.47
2018-11-28T11:45:48.609Z,39.24
2018-11-28T11:46:48.627Z,39.65
2018-11-28T11:47:48.580Z,39.43
2018-11-28T11:48:48.580Z,39.87
2018-11-28T11:49:48.561Z,40.00
2018-11-28T11:50:48.549Z,41.17
2018-11-28T11:51:48.554Z,42.32
2018-11-28T11:52:48.529Z,43.50
2018-11-28T11:53:48.516Z,43.21
2018-11-28T11:54:48.508Z,44.78
2018-11-28T11:55:48.495Z,44.38
2018-11-28T11:56:48.523Z,45.54
2018-11-28T11:57:48.471Z,45.75
2018-11-28T11:58:48.469Z,45.88
2018-11-28T11:59:48.450Z,46.19
2018-11-28T12:00:48.447Z,46.60
2018-11-28T12:01:54.550Z,47.12
2018-11-28T12:02:49.441Z,46.94
2018-11-28T12:03:48.405Z,46.62
2018-11-28T12:04:48.390Z,47.06
2018-11-28T12:05:48.389Z,47.27
2018-11-28T12:06:48.386Z,47.99
2018-11-28T12:07:48.374Z,47.68
2018-11-28T12:08:48.371Z,48.12
2018-11-28T12:09:48.334Z,47.91
2018-11-28T12:10:48.327Z,48.85
2018-11-28T12:11:48.319Z,48.02
2018-11-28T12:12:51.725Z,48.33
2018-11-28T12:13:48.291Z,49.26
2018-11-28T12:14:48.280Z,48.46
2018-11-28T12:15:48.275Z,47.73
2018-11-28T12:16:48.264Z,48.35
2018-11-28T12:17:48.266Z,48.14
2018-11-28T12:18:48.246Z,49.29
2018-11-28T12:19:48.235Z,48.77
2018-11-28T12:20:48.216Z,48.99
2018-11-28T12:21:48.212Z,48.89
2018-11-28T12:22:48.211Z,49.30
2018-11-28T12:23:48.193Z,49.72
2018-11-28T12:24:48.175Z,49.72
2018-11-28T12:25:48.172Z,49.72
2018-11-28T12:26:48.147Z,49.72
2018-11-28T12:27:48.166Z,49.93
2018-11-28T12:28:48.137Z,49.30
2018-11-28T12:29:48.126Z,49.62
2018-11-28T12:30:48.108Z,50.03
2018-11-28T12:31:48.091Z,50.03
2018-11-28T12:32:48.113Z,49.41
2018-11-28T12:33:48.069Z,49.62
2018-11-28T12:34:50.404Z,49.93
2018-11-28T12:35:48.051Z,49.74
2018-11-28T12:36:48.042Z,49.64
2018-11-28T12:37:48.049Z,49.43
2018-11-28T12:38:48.023Z,50.26
2018-11-28T12:39:48.009Z,50.26
2018-11-28T12:40:48.008Z,49.74
2018-11-28T12:41:47.986Z,49.95
2018-11-28T12:42:47.986Z,49.85
2018-11-28T12:43:47.959Z,50.57
2018-11-28T12:44:47.963Z,50.57
2018-11-28T12:45:47.940Z,51.20
2018-11-28T12:46:47.941Z,50.99
2018-11-28T12:47:47.947Z,51.30
2018-11-28T12:48:47.904Z,50.68
2018-11-28T12:49:47.895Z,50.16
2018-11-28T12:50:47.883Z,50.37
2018-11-28T12:51:47.881Z,51.09
2018-11-28T12:52:47.890Z,50.05